Página principal
METAR-TAF:

METAR-TAF

Aeroportos :

Carachi, Paquistão

Aeroporto Internacional Jinnah

latitude: 24-54N, longitude: 067-08E, altura: 21 m

Observação actual do tempo

O boletim foi feito há 27 minutos, às 22:25 UTC
Vento 5 kt de norte
Temperatura 13°C
Humidade 54%
Pressão 1014 hPa
Visibilidade: 4000 m
bruma

METAR: OPKC 212225Z 35005KT 4000 HZ NSC 13/04 Q1014 NOSIG

Hora: 03:52 (22:52 UTC)

Previsão

O boletim foi feito há 6 horas e 52 minutos, às 16:00 UTC
Previsão válida de 21 às 18 UTC a 22 às 24 UTC
Vento 8 kt de nordeste
Visibilidade: 5000 m
bruma
Temporariamente
de 22 às 00 UTC a 22 às 04 UTC
Vento 4 kt de nordeste
Visibilidade: 4000 m
bruma
A partir de 22 às 0600 UTC
Vento 10 kt de nor-nordeste
Visibilidade: 6000 m
Tornando-se
de 22 às 19 UTC a 22 às 21 UTC
Vento 5 kt de nordeste
Visibilidade: 5000 m
bruma

TAF: OPKC 211600Z 2118/2224 04008KT 5000 HZ NSC TEMPO 2200/2204 05004KT 4000 HZ NSC FM220600 03010KT 6000 NSC BECMG 2219/2221 05005KT 5000 HZ NSC

Observações e previsões do tempo de mais de 4000 aeroportos (mensagens METAR e TAF).

As estações disponíveis são os pontos amarelos e vermelhos sobre o mapa.

Mova o rato sobre o mapa para ver o nome da estação.

Depois clique no ponto para visualizar as observações e previsões meteorológicas.

Para alterar o mapa : clique nos botões verdes com uma cruz preta para aumentar o zoom; no botão verde com uma pitada de zoom; ou nas setas verdes para mapas adjacentes.


METAR-TAF: